Time;durP1;ratioP1;P1;durP2;ratioP2;P2;SDS_P1;SDS_P2;PMS_P1;PMS_P2;Temp;Humidity;BMP_temperature;BMP_pressure;BME280_temperature;BME280_humidity;BME280_pressure;Samples;Min_cycle;Max_cycle;Signal;HPM_P1;HPM_P2
2022/03/20 00:00:12;;;;;;;19.52;10.75;;;4.00;54.00;;;;;;5073935;28;20386;-53
2022/03/20 00:02:40;;;;;;;24.60;11.57;;;3.90;52.50;;;;;;5074174;28;20033;-53
2022/03/20 00:05:06;;;;;;;22.77;10.88;;;4.00;51.00;;;;;;5074018;28;20028;-53
2022/03/20 00:07:33;;;;;;;23.55;11.73;;;4.00;53.10;;;;;;5076480;28;20047;-53
2022/03/20 00:10:05;;;;;;;27.45;11.90;;;3.90;56.10;;;;;;5077492;28;20367;-53
2022/03/20 00:12:35;;;;;;;21.42;10.48;;;3.80;54.70;;;;;;5077729;28;20398;-53
2022/03/20 00:15:02;;;;;;;21.67;10.32;;;3.80;51.60;;;;;;5077715;28;20379;-53
2022/03/20 00:17:29;;;;;;;19.33;9.93;;;3.80;50.90;;;;;;5077433;28;20048;-53
2022/03/20 00:19:55;;;;;;;16.27;9.25;;;3.90;49.70;;;;;;5077826;28;20025;-53
2022/03/20 00:22:22;;;;;;;21.23;9.90;;;3.90;51.80;;;;;;5077574;28;20028;-53
2022/03/20 00:24:48;;;;;;;21.42;10.10;;;3.80;52.20;;;;;;5077514;28;20459;-53
2022/03/20 00:27:15;;;;;;;20.27;10.23;;;3.80;49.70;;;;;;5077702;28;20085;-53
2022/03/20 00:29:41;;;;;;;17.35;7.72;;;3.80;50.60;;;;;;5059698;28;20543;-53
2022/03/20 00:32:09;;;;;;;20.67;10.10;;;3.80;48.70;;;;;;5077243;28;20062;-53
2022/03/20 00:34:36;;;;;;;19.00;10.30;;;3.70;50.50;;;;;;5077187;28;20060;-53
2022/03/20 00:37:02;;;;;;;22.05;11.35;;;3.70;51.30;;;;;;5077065;28;20565;-53
2022/03/20 00:39:28;;;;;;;23.50;10.60;;;3.60;52.10;;;;;;5077271;28;20103;-53
2022/03/20 00:41:54;;;;;;;19.25;9.77;;;3.60;51.60;;;;;;5074214;28;20499;-53
2022/03/20 00:44:20;;;;;;;19.42;9.52;;;3.50;50.90;;;;;;5077313;28;20035;-53
2022/03/20 00:46:48;;;;;;;38.08;15.60;;;3.50;55.10;;;;;;5077062;28;20021;-53
2022/03/20 00:49:15;;;;;;;21.45;10.00;;;3.40;54.40;;;;;;5077013;28;20024;-53
2022/03/20 00:51:42;;;;;;;22.90;10.93;;;3.50;49.70;;;;;;5077243;28;20413;-53
2022/03/20 00:54:09;;;;;;;64.10;21.42;;;3.50;51.80;;;;;;5077023;28;20480;-53
2022/03/20 00:56:35;;;;;;;64.95;22.23;;;3.50;50.80;;;;;;5076800;28;20067;-53
2022/03/20 00:59:01;;;;;;;68.68;23.13;;;3.40;50.80;;;;;;5076905;28;20024;-53
2022/03/20 01:01:28;;;;;;;91.05;29.38;;;3.40;53.00;;;;;;5076602;28;20390;-53
2022/03/20 01:03:54;;;;;;;104.10;29.70;;;3.30;52.20;;;;;;5076768;28;20028;-53
2022/03/20 01:06:22;;;;;;;106.00;32.53;;;3.30;52.70;;;;;;5076801;28;20043;-53
2022/03/20 01:08:49;;;;;;;117.45;34.28;;;3.20;52.30;;;;;;5076602;28;20335;-53
2022/03/20 01:11:16;;;;;;;81.03;26.13;;;3.20;53.00;;;;;;5076681;28;20056;-53
2022/03/20 01:13:42;;;;;;;50.72;19.73;;;3.10;54.10;;;;;;5076362;28;20367;-53
2022/03/20 01:16:08;;;;;;;65.57;22.98;;;3.00;55.40;;;;;;5076525;28;20465;-53
2022/03/20 01:18:34;;;;;;;41.65;15.30;;;2.90;56.20;;;;;;5075310;28;20082;-53
2022/03/20 01:21:01;;;;;;;99.03;30.60;;;2.90;59.70;;;;;;5076339;28;20485;-53
2022/03/20 01:23:27;;;;;;;87.28;27.75;;;2.80;58.20;;;;;;5076162;28;20498;-53
2022/03/20 01:25:53;;;;;;;129.38;34.65;;;2.70;61.20;;;;;;5076398;28;20138;-53
2022/03/20 01:28:20;;;;;;;81.93;23.13;;;2.70;64.70;;;;;;5076277;28;20032;-53
2022/03/20 01:30:47;;;;;;;122.00;33.17;;;2.70;65.30;;;;;;5076388;28;20032;-53
2022/03/20 01:33:14;;;;;;;137.63;38.95;;;2.70;58.90;;;;;;5076063;28;20127;-53
2022/03/20 01:35:41;;;;;;;144.10;39.38;;;2.70;58.80;;;;;;5076098;28;20043;-53
2022/03/20 01:38:07;;;;;;;98.50;29.48;;;2.60;58.30;;;;;;5075981;28;20040;-53
2022/03/20 01:40:34;;;;;;;116.60;32.28;;;2.70;58.90;;;;;;5076254;28;20424;-53
2022/03/20 01:43:00;;;;;;;171.98;43.70;;;2.60;59.20;;;;;;5076013;28;20100;-53
2022/03/20 01:45:26;;;;;;;168.88;42.83;;;2.60;58.30;;;;;;5076027;28;20120;-53
2022/03/20 01:47:54;;;;;;;269.52;59.58;;;2.60;58.10;;;;;;5075950;28;20098;-53
2022/03/20 01:50:22;;;;;;;100.53;27.00;;;2.50;59.50;;;;;;5075647;28;20070;-53
2022/03/20 01:52:50;;;;;;;123.90;31.60;;;2.50;59.70;;;;;;5075869;28;20469;-53
2022/03/20 01:55:17;;;;;;;101.43;28.48;;;2.50;56.00;;;;;;5076334;28;20024;-53
2022/03/20 01:57:44;;;;;;;183.75;44.10;;;2.50;55.70;;;;;;5075557;28;20032;-52
2022/03/20 02:00:13;;;;;;;189.25;47.28;;;2.60;55.40;;;;;;5075726;28;20039;-53
2022/03/20 02:02:40;;;;;;;95.72;28.45;;;2.60;58.00;;;;;;5075811;28;20032;-53
2022/03/20 02:05:09;;;;;;;55.78;17.52;;;2.60;59.50;;;;;;5075579;28;20029;-53
2022/03/20 02:07:35;;;;;;;69.80;18.65;;;2.60;60.80;;;;;;5075669;28;20123;-53
2022/03/20 02:10:03;;;;;;;60.08;18.48;;;2.60;59.60;;;;;;5075228;28;20102;-53
2022/03/20 02:12:30;;;;;;;52.10;18.00;;;2.60;60.70;;;;;;5075455;28;20036;-53
2022/03/20 02:14:58;;;;;;;56.85;17.58;;;2.60;58.80;;;;;;5075426;28;20040;-53
2022/03/20 02:17:29;;;;;;;48.33;16.45;;;2.50;57.10;;;;;;5075220;28;20021;-53
2022/03/20 02:20:03;;;;;;;56.63;18.02;;;2.50;58.00;;;;;;5075410;28;20016;-53
2022/03/20 02:22:30;;;;;;;29.52;12.77;;;2.50;57.90;;;;;;5075298;28;20033;-53
2022/03/20 02:24:56;;;;;;;25.77;11.40;;;2.50;57.70;;;;;;5075117;28;20024;-53
2022/03/20 02:27:24;;;;;;;35.88;13.10;;;2.50;58.10;;;;;;5075239;28;20770;-53
2022/03/20 02:29:59;;;;;;;51.28;16.88;;;2.50;57.50;;;;;;5074993;28;20439;-53
2022/03/20 02:32:29;;;;;;;62.10;20.13;;;2.50;56.70;;;;;;5074705;28;20035;-54
2022/03/20 02:35:02;;;;;;;55.77;20.10;;;2.50;57.60;;;;;;5075304;28;20054;-53
2022/03/20 02:37:29;;;;;;;81.70;22.85;;;2.40;57.90;;;;;;5074939;28;20051;-53
2022/03/20 02:39:59;;;;;;;54.53;15.93;;;2.40;56.80;;;;;;5074741;28;20068;-53
2022/03/20 02:42:26;;;;;;;55.25;17.58;;;2.40;54.40;;;;;;5074943;28;20027;-53
2022/03/20 02:45:12;;;;;;;50.88;17.40;;;2.40;54.30;;;;;;5074744;28;20050;-53
2022/03/20 02:47:41;;;;;;;59.40;19.30;;;2.40;56.40;;;;;;5074856;28;20035;-53
2022/03/20 02:50:17;;;;;;;73.80;20.25;;;2.40;58.20;;;;;;5074574;28;20475;-53
2022/03/20 02:52:59;;;;;;;73.28;21.55;;;2.30;56.50;;;;;;5074720;28;20055;-53
2022/03/20 02:55:35;;;;;;;66.18;20.17;;;2.30;55.70;;;;;;5074735;28;20035;-53
2022/03/20 02:58:03;;;;;;;57.70;18.08;;;2.20;55.40;;;;;;5074618;28;20384;-53
2022/03/20 03:00:32;;;;;;;45.83;16.08;;;2.20;57.70;;;;;;5074404;28;20090;-53
2022/03/20 03:03:01;;;;;;;37.97;13.48;;;2.20;57.70;;;;;;5074688;28;20027;-53
2022/03/20 03:05:29;;;;;;;38.53;13.13;;;2.10;58.50;;;;;;5074772;28;20025;-53
2022/03/20 03:10:56;;;;;;;80.53;23.05;;;2.00;59.20;;;;;;5074492;28;20048;-53
2022/03/20 03:13:36;;;;;;;55.75;17.80;;;2.00;59.00;;;;;;5074291;28;20036;-53
2022/03/20 03:16:06;;;;;;;75.57;23.20;;;2.00;60.10;;;;;;5074347;28;20038;-53
2022/03/20 03:18:32;;;;;;;78.90;22.73;;;1.90;63.80;;;;;;5074516;28;20017;-53
2022/03/20 03:20:59;;;;;;;70.38;21.55;;;1.80;61.10;;;;;;5074385;28;20037;-53
2022/03/20 03:23:26;;;;;;;61.45;18.10;;;1.80;63.00;;;;;;5074164;28;20032;-53
2022/03/20 03:25:53;;;;;;;61.10;18.95;;;1.80;62.40;;;;;;5074343;28;20035;-53
2022/03/20 03:28:19;;;;;;;86.65;23.90;;;1.80;62.90;;;;;;5074446;28;20116;-53
2022/03/20 03:30:47;;;;;;;55.55;18.40;;;1.80;61.50;;;;;;5074412;28;20115;-53
2022/03/20 03:33:17;;;;;;;27.92;11.52;;;1.80;58.70;;;;;;5074176;28;20045;-53
2022/03/20 03:35:51;;;;;;;40.20;14.07;;;1.80;59.60;;;;;;5074357;28;20433;-53
2022/03/20 03:38:23;;;;;;;61.58;20.42;;;1.70;64.60;;;;;;5074165;28;20043;-53
2022/03/20 03:40:49;;;;;;;92.05;25.50;;;1.60;62.70;;;;;;5074401;28;20024;-53
2022/03/20 03:43:17;;;;;;;99.10;26.23;;;1.60;63.10;;;;;;5077886;28;20044;-53
2022/03/20 03:45:44;;;;;;;46.60;15.57;;;1.60;62.40;;;;;;5078299;28;20422;-52
2022/03/20 03:48:11;;;;;;;27.23;10.65;;;1.50;64.20;;;;;;5078377;28;20028;-53
2022/03/20 03:50:39;;;;;;;21.40;11.20;;;1.60;62.30;;;;;;5078023;28;20024;-53
2022/03/20 03:53:06;;;;;;;23.52;10.75;;;1.60;61.90;;;;;;5078440;28;20047;-53
2022/03/20 03:55:32;;;;;;;27.58;11.50;;;1.50;62.10;;;;;;5078062;28;20102;-53
2022/03/20 03:57:59;;;;;;;29.25;11.57;;;1.50;62.70;;;;;;5077906;28;20466;-53
2022/03/20 04:00:27;;;;;;;27.67;11.07;;;1.50;66.10;;;;;;5078131;28;20025;-53
2022/03/20 04:02:53;;;;;;;27.50;11.30;;;1.40;63.80;;;;;;5077894;28;20040;-53
2022/03/20 04:05:19;;;;;;;30.30;12.05;;;1.30;67.10;;;;;;5077838;28;20112;-53
2022/03/20 04:07:47;;;;;;;70.90;21.40;;;1.20;72.30;;;;;;5078018;28;20074;-53
2022/03/20 04:10:15;;;;;;;73.40;23.42;;;1.20;74.00;;;;;;5077800;28;20306;-53
2022/03/20 04:12:41;;;;;;;67.78;20.33;;;1.10;71.80;;;;;;5077431;28;20097;-53
2022/03/20 04:15:11;;;;;;;39.55;14.32;;;1.20;73.90;;;;;;5077746;28;20485;-52
2022/03/20 04:17:38;;;;;;;30.02;11.50;;;1.10;70.30;;;;;;5077695;28;20025;-53
2022/03/20 04:20:06;;;;;;;21.17;9.02;;;1.10;71.10;;;;;;5077566;28;20020;-53
2022/03/20 04:22:35;;;;;;;22.75;10.07;;;1.00;72.90;;;;;;5077579;28;20035;-53
2022/03/20 04:25:02;;;;;;;20.27;9.52;;;0.90;79.50;;;;;;5077497;28;20036;-53
2022/03/20 04:27:28;;;;;;;23.17;10.07;;;0.90;78.90;;;;;;5077457;28;20029;-53
2022/03/20 04:29:54;;;;;;;24.95;10.48;;;0.80;82.60;;;;;;5077378;28;20021;-53
2022/03/20 04:32:21;;;;;;;21.33;10.23;;;0.80;78.20;;;;;;5077283;28;20099;-53
2022/03/20 04:34:47;;;;;;;30.02;10.55;;;0.70;80.10;;;;;;5077137;28;20051;-53
2022/03/20 04:37:14;;;;;;;24.70;12.23;;;0.70;79.70;;;;;;5077100;28;20489;-53
2022/03/20 04:39:40;;;;;;;21.38;10.77;;;0.70;73.40;;;;;;5077391;28;20050;-52
2022/03/20 04:42:08;;;;;;;21.17;10.85;;;0.70;87.60;;;;;;5077275;28;20074;-53
2022/03/20 04:44:34;;;;;;;22.80;10.95;;;0.50;90.90;;;;;;5077167;28;20105;-53
2022/03/20 04:47:00;;;;;;;23.92;11.18;;;0.50;90.40;;;;;;5077328;28;20048;-53
2022/03/20 05:00:11;;;;;;;27.00;12.60;;;0.00;95.20;;;;;;5077027;28;20454;-53
2022/03/20 05:02:37;;;;;;;34.83;13.80;;;-0.10;95.10;;;;;;5076715;28;20032;-52
2022/03/20 05:05:03;;;;;;;38.50;13.32;;;-0.10;95.30;;;;;;5077107;28;20381;-53
2022/03/20 05:07:29;;;;;;;33.50;13.20;;;-0.10;95.90;;;;;;5076925;28;20347;-53
2022/03/20 05:15:29;;;;;;;46.75;18.98;;;0.40;97.80;;;;;;5076673;28;20445;-53
2022/03/20 05:17:56;;;;;;;48.38;17.58;;;0.90;97.90;;;;;;5058664;28;20055;-53
2022/03/20 05:20:23;;;;;;;47.88;18.02;;;1.40;95.30;;;;;;5076726;28;20029;-53
2022/03/20 05:22:51;;;;;;;77.70;26.80;;;1.70;93.70;;;;;;5076380;28;20029;-53
2022/03/20 05:25:18;;;;;;;54.67;21.70;;;2.20;92.80;;;;;;5076109;28;20025;-53
2022/03/20 05:27:44;;;;;;;60.88;24.58;;;2.80;93.30;;;;;;5076435;28;20024;-53
2022/03/20 05:30:11;;;;;;;40.10;18.65;;;2.90;92.50;;;;;;5076179;28;20024;-53
2022/03/20 05:32:39;;;;;;;46.78;16.15;;;2.90;93.40;;;;;;5076052;28;20028;-53
2022/03/20 05:35:07;;;;;;;46.80;17.15;;;3.10;93.50;;;;;;5076516;28;20028;-53
2022/03/20 05:37:33;;;;;;;42.30;16.58;;;3.00;92.00;;;;;;5075728;28;20470;-53
2022/03/20 05:40:00;;;;;;;39.92;17.50;;;3.00;90.90;;;;;;5076177;28;20053;-53
2022/03/20 05:42:25;;;;;;;51.42;19.88;;;3.00;91.00;;;;;;5076078;28;20032;-53
2022/03/20 05:44:51;;;;;;;47.67;19.90;;;3.00;90.00;;;;;;5075872;28;20356;-53
2022/03/20 05:47:17;;;;;;;56.88;21.08;;;3.10;82.50;;;;;;5076078;28;20084;-53
2022/03/20 05:49:43;;;;;;;58.85;24.30;;;3.20;85.40;;;;;;5075833;28;20035;-53
2022/03/20 05:52:09;;;;;;;45.40;21.15;;;3.10;87.80;;;;;;5075791;28;20119;-53
2022/03/20 05:54:36;;;;;;;46.10;17.83;;;3.30;87.80;;;;;;5076029;28;20039;-53
2022/03/20 05:59:46;;;;;;;45.08;16.52;;;2.60;87.50;;;;;;5075713;28;20020;-53
2022/03/20 06:02:12;;;;;;;39.00;15.85;;;3.00;85.10;;;;;;5075724;28;20115;-53
2022/03/20 06:04:38;;;;;;;29.55;15.07;;;3.10;81.20;;;;;;5075115;28;20032;-53
2022/03/20 06:07:05;;;;;;;40.17;17.98;;;2.90;78.90;;;;;;5075421;28;20036;-53
2022/03/20 06:09:31;;;;;;;50.92;26.92;;;3.20;78.40;;;;;;5075790;28;20432;-53
2022/03/20 06:11:57;;;;;;;58.20;28.60;;;3.40;68.70;;;;;;5075481;28;20109;-53
2022/03/20 06:14:23;;;;;;;42.72;16.25;;;3.60;70.40;;;;;;5075243;28;20037;-53
2022/03/20 06:16:50;;;;;;;30.13;15.07;;;3.80;63.00;;;;;;5075366;28;20108;-53
2022/03/20 06:19:16;;;;;;;33.10;14.05;;;4.10;62.30;;;;;;5075254;28;20110;-53
2022/03/20 06:21:44;;;;;;;26.92;12.35;;;4.40;59.10;;;;;;5075198;28;20052;-53
2022/03/20 06:24:10;;;;;;;21.23;10.98;;;4.70;57.00;;;;;;5075320;28;20044;-53
2022/03/20 06:26:37;;;;;;;21.58;9.40;;;5.00;52.60;;;;;;5075106;28;20040;-53
2022/03/20 06:29:07;;;;;;;17.90;9.27;;;5.20;48.80;;;;;;5075353;28;20082;-53
2022/03/20 06:31:33;;;;;;;20.83;10.43;;;5.70;46.00;;;;;;5075160;28;20466;-53
2022/03/20 06:34:01;;;;;;;23.27;10.75;;;6.20;44.60;;;;;;5074808;28;20053;-53
2022/03/20 06:36:27;;;;;;;21.50;10.68;;;6.50;43.00;;;;;;5075142;28;20079;-53
2022/03/20 06:38:54;;;;;;;16.15;8.77;;;6.90;41.90;;;;;;5075008;28;20028;-53
2022/03/20 06:41:20;;;;;;;19.48;9.40;;;7.10;38.50;;;;;;5074977;28;20021;-53
2022/03/20 06:43:46;;;;;;;21.08;10.05;;;7.30;37.70;;;;;;5075079;28;20044;-53
2022/03/20 06:46:12;;;;;;;16.77;8.20;;;7.50;36.40;;;;;;5074927;28;20051;-53
2022/03/20 06:48:38;;;;;;;22.15;9.30;;;7.60;34.70;;;;;;5074530;28;20028;-53
2022/03/20 06:51:04;;;;;;;14.10;7.38;;;7.50;33.60;;;;;;5074861;28;20132;-53
2022/03/20 06:53:30;;;;;;;11.80;7.10;;;7.40;33.20;;;;;;5074974;28;20082;-53
2022/03/20 06:55:57;;;;;;;14.63;7.85;;;7.40;32.50;;;;;;5074569;28;20056;-53
2022/03/20 06:58:23;;;;;;;10.23;6.20;;;7.60;33.30;;;;;;5074499;28;20024;-53
2022/03/20 07:00:50;;;;;;;11.98;5.55;;;7.30;31.60;;;;;;5056734;28;20084;-53
2022/03/20 07:03:16;;;;;;;9.13;5.68;;;7.40;33.40;;;;;;5074372;28;20481;-53
2022/03/20 07:05:43;;;;;;;13.65;7.07;;;8.00;34.10;;;;;;5074697;28;20044;-53
2022/03/20 07:08:09;;;;;;;11.63;6.28;;;8.40;33.70;;;;;;5074570;28;20029;-53
2022/03/20 07:10:36;;;;;;;9.48;6.13;;;8.30;31.20;;;;;;5074189;28;20371;-53
2022/03/20 07:15:52;;;;;;;11.13;6.53;;;8.90;31.80;;;;;;5073847;28;20032;-53
2022/03/20 07:18:19;;;;;;;9.68;5.95;;;8.60;30.50;;;;;;5074210;28;20123;-53
2022/03/20 07:20:48;;;;;;;8.98;6.30;;;8.50;30.10;;;;;;5074484;28;20043;-53
2022/03/20 07:23:15;;;;;;;10.88;6.22;;;8.60;30.30;;;;;;5074388;28;20021;-53
2022/03/20 07:31:12;;;;;;;10.00;5.22;;;7.70;29.90;;;;;;5074259;28;20032;-53
2022/03/20 07:33:39;;;;;;;11.93;6.38;;;8.00;30.20;;;;;;5074080;28;20083;-53
2022/03/20 07:36:06;;;;;;;12.70;6.40;;;7.80;29.70;;;;;;5074225;28;20729;-53
2022/03/20 07:38:32;;;;;;;10.93;6.45;;;8.00;29.60;;;;;;5074154;28;20037;-53
2022/03/20 07:40:59;;;;;;;12.60;6.22;;;8.40;29.60;;;;;;5074474;28;20021;-53
2022/03/20 07:43:26;;;;;;;8.63;5.85;;;8.70;29.30;;;;;;5074223;28;20056;-53
2022/03/20 07:45:52;;;;;;;10.35;5.35;;;8.30;27.80;;;;;;5073996;28;20625;-53
2022/03/20 07:48:23;;;;;;;12.30;5.65;;;8.90;28.50;;;;;;5074109;28;20052;-53
2022/03/20 07:50:53;;;;;;;9.43;5.18;;;9.20;28.00;;;;;;5074150;28;20055;-53
2022/03/20 07:53:19;;;;;;;10.35;5.00;;;9.10;27.20;;;;;;5073991;28;20135;-53
2022/03/20 07:55:46;;;;;;;8.80;5.15;;;8.80;26.90;;;;;;5074223;28;20056;-53
2022/03/20 07:58:16;;;;;;;13.25;5.57;;;8.70;27.00;;;;;;5074211;28;20040;-53
2022/03/20 08:00:42;;;;;;;11.47;5.13;;;8.50;26.80;;;;;;5073802;28;20035;-53
2022/03/20 08:03:08;;;;;;;9.93;5.47;;;8.40;27.30;;;;;;5073878;28;20261;-53
2022/03/20 08:05:34;;;;;;;9.48;5.47;;;8.30;27.40;;;;;;5073908;28;20032;-53
2022/03/20 08:08:03;;;;;;;16.58;5.53;;;8.20;27.80;;;;;;5073959;28;20033;-53
2022/03/20 08:10:30;;;;;;;10.27;5.50;;;8.40;27.60;;;;;;5073980;28;20516;-53
2022/03/20 08:12:57;;;;;;;7.30;4.97;;;9.10;27.70;;;;;;5073471;28;20029;-53
2022/03/20 08:15:24;;;;;;;9.93;5.25;;;9.40;27.10;;;;;;5073817;28;20466;-53
2022/03/20 08:17:50;;;;;;;9.45;5.25;;;9.40;26.60;;;;;;5073745;28;20082;-53
2022/03/20 08:20:17;;;;;;;11.82;6.35;;;9.40;26.60;;;;;;5073771;28;20031;-53
2022/03/20 08:22:43;;;;;;;11.07;6.20;;;9.50;26.40;;;;;;5073709;28;20028;-53
2022/03/20 08:25:10;;;;;;;11.48;6.10;;;9.60;26.60;;;;;;5073769;28;20107;-53
2022/03/20 08:27:47;;;;;;;10.75;5.45;;;10.40;27.10;;;;;;5074460;28;20113;-54
2022/03/20 08:30:17;;;;;;;11.43;6.00;;;10.80;26.30;;;;;;5077638;28;20039;-53
2022/03/20 08:32:49;;;;;;;10.80;5.53;;;11.50;26.30;;;;;;5077088;28;20470;-54
2022/03/20 08:35:17;;;;;;;10.90;6.43;;;12.10;26.20;;;;;;5077530;28;20025;-54
2022/03/20 08:37:44;;;;;;;15.10;6.70;;;12.50;25.20;;;;;;5077433;28;20040;-54
2022/03/20 08:40:16;;;;;;;10.35;5.85;;;12.20;23.90;;;;;;5077264;28;20629;-54
2022/03/20 08:42:47;;;;;;;10.13;6.00;;;11.60;23.40;;;;;;5077246;28;20086;-53
2022/03/20 08:45:14;;;;;;;11.68;6.88;;;11.20;23.40;;;;;;5077211;28;20024;-54
2022/03/20 08:47:40;;;;;;;9.82;6.25;;;11.10;24.50;;;;;;5077250;28;20490;-54
2022/03/20 08:50:08;;;;;;;11.40;6.47;;;11.30;24.80;;;;;;5076830;28;20055;-54
2022/03/20 08:52:34;;;;;;;12.50;6.63;;;11.00;23.90;;;;;;5077213;28;20151;-54
2022/03/20 08:55:00;;;;;;;12.18;5.93;;;10.90;24.30;;;;;;5077200;28;20032;-54
2022/03/20 08:57:28;;;;;;;8.40;5.57;;;11.80;24.80;;;;;;5076541;28;20039;-53
2022/03/20 08:59:54;;;;;;;10.68;6.45;;;12.60;24.60;;;;;;5076831;28;20025;-54
2022/03/20 09:02:20;;;;;;;12.32;6.65;;;13.00;23.40;;;;;;5076811;28;20097;-54
2022/03/20 09:04:46;;;;;;;12.68;6.97;;;11.80;22.40;;;;;;5076730;28;20047;-54
2022/03/20 09:07:12;;;;;;;13.35;6.78;;;11.80;22.90;;;;;;5076674;28;20041;-54
2022/03/20 09:09:38;;;;;;;11.00;6.72;;;11.80;23.30;;;;;;5076657;28;20033;-54
2022/03/20 09:12:05;;;;;;;13.27;6.75;;;12.50;24.40;;;;;;5076523;28;20028;-54
2022/03/20 09:14:30;;;;;;;11.32;6.75;;;13.20;23.70;;;;;;5076635;28;20139;-54
2022/03/20 09:19:41;;;;;;;11.07;6.93;;;14.40;23.80;;;;;;5076514;28;20352;-54
2022/03/20 09:22:07;;;;;;;11.95;6.30;;;13.90;21.30;;;;;;5076489;28;20032;-54
2022/03/20 09:24:33;;;;;;;11.30;6.55;;;13.50;21.60;;;;;;5076429;28;20462;-54
2022/03/20 09:27:02;;;;;;;8.57;5.45;;;14.10;21.80;;;;;;5076177;28;20032;-54
2022/03/20 09:29:28;;;;;;;10.65;5.90;;;13.60;21.20;;;;;;5076544;28;20036;-54
2022/03/20 09:31:55;;;;;;;8.82;4.85;;;13.30;20.50;;;;;;5076066;28;20086;-54
2022/03/20 09:34:21;;;;;;;8.98;5.68;;;13.50;20.50;;;;;;5076102;28;20044;-54
2022/03/20 09:36:47;;;;;;;11.10;6.05;;;12.40;19.20;;;;;;5076178;28;20428;-54
2022/03/20 09:39:13;;;;;;;8.35;4.90;;;11.70;19.50;;;;;;5075234;28;20025;-54
2022/03/20 09:41:45;;;;;;;10.43;6.05;;;11.90;20.10;;;;;;5076239;28;20085;-54
2022/03/20 09:44:11;;;;;;;8.80;5.40;;;11.90;20.50;;;;;;5076189;28;20021;-54
2022/03/20 09:46:37;;;;;;;9.13;5.50;;;12.20;20.80;;;;;;5075823;28;20024;-54
2022/03/20 09:49:06;;;;;;;12.57;6.30;;;11.90;20.20;;;;;;5075972;28;20615;-54
2022/03/20 09:51:34;;;;;;;8.20;5.85;;;11.80;20.50;;;;;;5076042;28;20059;-54
2022/03/20 09:54:00;;;;;;;9.88;5.95;;;12.10;21.00;;;;;;5075856;28;20024;-54
2022/03/20 09:56:27;;;;;;;9.52;5.43;;;12.80;21.20;;;;;;5075802;28;20543;-54
2022/03/20 09:58:53;;;;;;;11.10;5.50;;;12.70;20.80;;;;;;5075811;28;20078;-54
2022/03/20 10:01:20;;;;;;;10.15;5.32;;;13.50;21.10;;;;;;5075494;28;20058;-54
2022/03/20 10:03:46;;;;;;;9.80;6.03;;;12.80;20.60;;;;;;5075811;28;20111;-54
2022/03/20 10:06:17;;;;;;;10.48;6.20;;;12.70;20.20;;;;;;5075764;28;20025;-54
2022/03/20 10:08:55;;;;;;;12.13;6.55;;;12.20;20.40;;;;;;5075339;28;20074;-54
2022/03/20 10:11:22;;;;;;;12.85;6.60;;;12.50;21.20;;;;;;5075546;28;20474;-54
2022/03/20 10:14:07;;;;;;;10.10;6.30;;;13.70;22.20;;;;;;5075413;28;20033;-54
2022/03/20 10:16:38;;;;;;;11.77;5.88;;;13.20;21.00;;;;;;5075193;28;20028;-54
2022/03/20 10:19:24;;;;;;;9.73;6.18;;;13.40;20.60;;;;;;5075208;28;20039;-54
2022/03/20 10:22:02;;;;;;;8.70;5.35;;;14.20;21.60;;;;;;5057677;28;20078;-54
2022/03/20 10:24:31;;;;;;;9.32;5.70;;;13.30;19.90;;;;;;5075509;28;20035;-54
2022/03/20 10:26:59;;;;;;;10.10;5.30;;;12.70;19.60;;;;;;5075147;28;20498;-53
2022/03/20 10:29:27;;;;;;;7.70;5.45;;;12.10;19.50;;;;;;5074998;28;20025;-53
2022/03/20 10:31:56;;;;;;;12.48;6.03;;;11.70;19.60;;;;;;5075066;28;20033;-53
2022/03/20 10:34:26;;;;;;;9.73;5.68;;;12.00;20.20;;;;;;5074891;28;20567;-54
2022/03/20 10:36:52;;;;;;;15.50;7.20;;;12.00;20.50;;;;;;5074698;28;20119;-53
2022/03/20 10:39:22;;;;;;;9.80;6.20;;;12.70;21.10;;;;;;5074992;28;20505;-54
2022/03/20 10:41:52;;;;;;;14.57;6.78;;;13.50;21.80;;;;;;5075182;28;20103;-54
2022/03/20 10:44:19;;;;;;;16.20;6.73;;;13.30;21.00;;;;;;5074867;28;20024;-54
2022/03/20 10:47:18;;;;;;;13.55;6.97;;;13.60;22.30;;;;;;5074667;28;20059;-54
2022/03/20 10:50:04;;;;;;;11.82;7.30;;;14.80;22.60;;;;;;5068179;28;20060;-54
2022/03/20 10:52:30;;;;;;;18.05;8.82;;;15.30;22.50;;;;;;5074848;28;20032;-54
2022/03/20 10:54:56;;;;;;;9.32;6.18;;;15.30;21.60;;;;;;5075260;28;20043;-54
2022/03/20 10:57:34;;;;;;;7.85;5.60;;;15.00;20.20;;;;;;5074350;28;20041;-54
2022/03/20 11:00:05;;;;;;;8.40;5.95;;;15.00;19.60;;;;;;5074642;28;20048;-54
2022/03/20 11:02:35;;;;;;;11.55;6.78;;;15.40;20.20;;;;;;5074662;28;20032;-54
2022/03/20 11:05:01;;;;;;;12.40;6.63;;;15.90;20.70;;;;;;5074422;28;20032;-54
2022/03/20 11:07:27;;;;;;;10.68;6.90;;;15.30;19.50;;;;;;5074594;28;20044;-54
2022/03/20 11:09:55;;;;;;;10.88;6.63;;;15.50;20.00;;;;;;5074414;28;20036;-54
2022/03/20 11:12:35;;;;;;;11.40;7.05;;;15.40;20.50;;;;;;5064131;28;20021;-54
2022/03/20 11:15:06;;;;;;;11.88;6.72;;;15.70;20.20;;;;;;5054357;28;20461;-54
2022/03/20 11:17:45;;;;;;;11.73;7.40;;;15.30;20.60;;;;;;5054556;28;20052;-54
2022/03/20 11:20:13;;;;;;;10.80;6.93;;;16.10;20.40;;;;;;5054206;28;20027;-54
2022/03/20 11:22:47;;;;;;;11.57;7.20;;;16.40;19.90;;;;;;5054120;28;20029;-54
2022/03/20 11:25:17;;;;;;;12.00;6.70;;;16.30;20.00;;;;;;5053982;28;20039;-54
2022/03/20 11:27:46;;;;;;;11.68;7.53;;;16.70;20.30;;;;;;5054099;28;20025;-54
2022/03/20 11:30:13;;;;;;;11.85;6.82;;;16.70;20.20;;;;;;5054486;28;20041;-54
2022/03/20 11:32:43;;;;;;;11.10;6.40;;;16.90;19.50;;;;;;5053556;28;20478;-54
2022/03/20 11:35:09;;;;;;;8.60;6.15;;;16.80;19.00;;;;;;5054208;28;20033;-54
2022/03/20 11:37:42;;;;;;;8.60;5.72;;;16.60;18.80;;;;;;5053985;28;20037;-54
2022/03/20 11:40:11;;;;;;;13.02;6.38;;;16.30;19.70;;;;;;5054012;28;20104;-54
2022/03/20 11:42:38;;;;;;;11.85;7.43;;;16.30;19.70;;;;;;5054118;28;20036;-54
2022/03/20 11:45:04;;;;;;;11.93;6.57;;;16.60;19.90;;;;;;5054135;28;20025;-54
2022/03/20 11:47:32;;;;;;;11.30;5.95;;;17.10;19.90;;;;;;5054068;28;20032;-54
2022/03/20 11:50:21;;;;;;;21.73;7.82;;;17.10;20.30;;;;;;5054143;28;20564;-54
2022/03/20 11:52:53;;;;;;;11.35;6.75;;;17.20;19.60;;;;;;5054163;28;20382;-54
2022/03/20 11:55:27;;;;;;;11.68;6.78;;;17.10;19.10;;;;;;5053759;28;20433;-54
2022/03/20 11:57:53;;;;;;;10.18;6.20;;;17.00;18.90;;;;;;5053773;28;20037;-54
2022/03/20 12:00:27;;;;;;;16.15;7.45;;;16.90;18.90;;;;;;5054015;28;20029;-54
2022/03/20 12:03:13;;;;;;;12.32;6.60;;;16.80;18.80;;;;;;5055015;28;20021;-54
2022/03/20 12:05:42;;;;;;;9.05;5.90;;;16.90;18.30;;;;;;5057520;28;20036;-54
2022/03/20 12:08:23;;;;;;;34.10;13.43;;;17.20;18.30;;;;;;5057619;28;20037;-54
2022/03/20 12:11:23;;;;;;;13.93;6.20;;;17.10;18.90;;;;;;5057807;28;20057;-54
2022/03/20 12:13:54;;;;;;;11.68;6.20;;;16.90;18.20;;;;;;5057721;28;20394;-54
2022/03/20 12:16:42;;;;;;;10.07;6.55;;;17.00;18.00;;;;;;5057649;28;20025;-54
2022/03/20 12:19:12;;;;;;;9.88;5.78;;;17.10;18.70;;;;;;5057753;28;20039;-54
2022/03/20 12:21:56;;;;;;;9.85;6.13;;;17.30;18.40;;;;;;5057839;28;20057;-54
2022/03/20 12:24:45;;;;;;;9.70;5.68;;;17.10;18.60;;;;;;5057481;28;20704;-54
2022/03/20 12:29:47;;;;;;;9.30;6.00;;;17.40;18.10;;;;;;5057483;28;20029;-54
2022/03/20 12:32:15;;;;;;;11.13;5.95;;;16.90;17.60;;;;;;5057191;28;20501;-54
2022/03/20 12:34:45;;;;;;;8.02;5.78;;;17.00;18.30;;;;;;5075670;28;20328;-54
2022/03/20 12:37:33;;;;;;;10.00;5.53;;;16.50;17.40;;;;;;5076987;28;20029;-54
2022/03/20 12:40:11;;;;;;;9.10;5.85;;;16.60;17.80;;;;;;5077401;28;20414;-54
2022/03/20 12:42:39;;;;;;;8.35;5.90;;;16.50;17.50;;;;;;5077284;28;20017;-54
2022/03/20 12:45:09;;;;;;;12.82;9.02;;;16.20;18.20;;;;;;5076868;28;20029;-54
2022/03/20 12:47:36;;;;;;;9.27;5.95;;;16.50;19.10;;;;;;5077225;28;20055;-54
2022/03/20 12:50:09;;;;;;;19.25;9.48;;;15.90;18.20;;;;;;5077239;28;20032;-54
2022/03/20 12:52:37;;;;;;;11.55;5.40;;;16.40;18.80;;;;;;5076950;28;20390;-54
2022/03/20 12:55:10;;;;;;;8.18;4.88;;;16.50;18.80;;;;;;5077168;28;20547;-54
2022/03/20 12:57:39;;;;;;;10.40;5.30;;;16.50;17.80;;;;;;5076828;28;20028;-54
2022/03/20 13:00:19;;;;;;;10.57;6.25;;;16.40;17.40;;;;;;5076827;28;20021;-54
2022/03/20 13:03:07;;;;;;;13.52;6.90;;;16.10;17.10;;;;;;5076933;28;20074;-54
2022/03/20 13:05:46;;;;;;;8.70;5.43;;;16.20;17.90;;;;;;5076659;28;20032;-54
2022/03/20 13:08:20;;;;;;;8.88;5.05;;;16.20;18.70;;;;;;5076855;28;20062;-54
2022/03/20 13:10:46;;;;;;;12.55;6.07;;;16.20;18.80;;;;;;5076816;28;20055;-54
2022/03/20 13:13:13;;;;;;;11.40;6.93;;;16.40;19.10;;;;;;5076372;28;20036;-54
2022/03/20 13:15:40;;;;;;;14.30;7.10;;;16.30;19.30;;;;;;5076732;28;20089;-54
2022/03/20 13:18:08;;;;;;;11.70;6.85;;;16.40;18.60;;;;;;5076538;28;20470;-54
2022/03/20 13:20:37;;;;;;;9.98;4.78;;;16.50;18.50;;;;;;5076522;28;20016;-54